Time;durP1;ratioP1;P1;durP2;ratioP2;P2;SDS_P1;SDS_P2;PMS_P1;PMS_P2;Temp;Humidity;BMP_temperature;BMP_pressure;BME280_temperature;BME280_humidity;BME280_pressure;Samples;Min_cycle;Max_cycle;Signal;HPM_P1;HPM_P2
2024/01/02 00:00:47;;;;;;;4.43;2.47;;;16.40;67.50;17.30;99547.00;;;;5072094;28;20188;-49
2024/01/02 00:03:13;;;;;;;3.77;2.40;;;16.40;67.60;17.30;99526.00;;;;5072464;28;20231;-49
2024/01/02 00:05:38;;;;;;;3.50;2.40;;;16.40;67.60;17.30;99518.00;;;;5054083;28;20195;-49
2024/01/02 00:08:04;;;;;;;3.20;2.20;;;16.40;67.50;17.30;99521.00;;;;5052728;28;20296;-49
2024/01/02 00:10:30;;;;;;;2.87;2.00;;;16.30;67.50;17.30;99511.00;;;;5052394;28;20183;-49
2024/01/02 00:12:58;;;;;;;4.80;2.50;;;16.30;67.90;17.30;99504.00;;;;5071933;28;20228;-49
2024/01/02 00:15:24;;;;;;;3.17;2.30;;;16.30;67.60;17.30;99493.00;;;;5071758;28;20174;-49
2024/01/02 00:17:50;;;;;;;2.50;2.10;;;16.30;67.60;17.20;99482.00;;;;5070978;28;20186;-49
2024/01/02 00:20:16;;;;;;;3.20;2.33;;;16.30;67.60;17.20;99468.00;;;;5071639;28;20585;-48
2024/01/02 00:22:42;;;;;;;6.17;2.33;;;16.30;67.70;17.20;99476.00;;;;5071458;28;20201;-48
2024/01/02 00:25:08;;;;;;;3.93;2.20;;;16.30;67.90;17.20;99470.00;;;;5071659;28;20214;-49
2024/01/02 00:27:33;;;;;;;3.57;2.40;;;16.20;67.80;17.20;99454.00;;;;5071474;28;20177;-49
2024/01/02 00:29:59;;;;;;;3.33;2.40;;;16.30;67.90;17.20;99451.00;;;;5057115;28;20180;-48
2024/01/02 00:32:25;;;;;;;3.53;2.00;;;16.30;67.80;17.20;99448.00;;;;5073552;28;20672;-48
2024/01/02 00:34:51;;;;;;;3.97;2.30;;;16.20;68.00;17.10;99440.00;;;;5071692;28;20184;-49
2024/01/02 00:37:17;;;;;;;2.83;1.80;;;16.20;68.00;17.10;99430.00;;;;5071627;28;20240;-49
2024/01/02 00:39:42;;;;;;;3.40;2.10;;;16.20;68.00;17.10;99427.00;;;;5071094;28;20201;-49
2024/01/02 00:42:08;;;;;;;2.67;2.00;;;16.20;68.00;17.10;99417.00;;;;5071357;28;20199;-49
2024/01/02 00:44:34;;;;;;;2.73;2.10;;;16.20;68.00;17.10;99418.00;;;;5071166;28;20177;-49
2024/01/02 00:47:00;;;;;;;3.13;2.00;;;16.20;68.10;17.10;99411.00;;;;5059920;28;20287;-50
2024/01/02 00:49:25;;;;;;;2.47;2.00;;;16.20;68.00;17.10;99407.00;;;;5071009;28;20859;-49
2024/01/02 00:51:51;;;;;;;2.90;2.10;;;16.20;68.10;17.00;99402.00;;;;5071004;28;20222;-50
2024/01/02 00:54:17;;;;;;;2.43;1.80;;;16.10;68.00;17.00;99400.00;;;;5071170;28;20716;-50
2024/01/02 00:56:42;;;;;;;2.27;1.70;;;16.10;68.00;17.00;99393.00;;;;5070806;28;20181;-50
2024/01/02 00:59:08;;;;;;;2.77;2.00;;;16.20;68.20;17.00;99379.00;;;;5070464;28;20197;-50
2024/01/02 01:01:34;;;;;;;2.90;2.20;;;16.10;68.00;17.00;99379.00;;;;5070377;28;20223;-49
2024/01/02 01:04:01;;;;;;;2.20;1.90;;;16.10;68.10;17.00;99380.00;;;;5075676;28;20710;-49
2024/01/02 01:06:27;;;;;;;3.87;2.03;;;16.10;68.10;16.70;99364.00;;;;5069900;28;20312;-52
2024/01/02 01:08:53;;;;;;;2.60;2.00;;;16.10;68.20;17.00;99372.00;;;;5069917;28;20664;-50
2024/01/02 01:11:20;;;;;;;2.27;1.97;;;16.10;68.20;17.00;99350.00;;;;5069526;28;20320;-49
2024/01/02 01:13:45;;;;;;;1.90;1.60;;;16.10;68.30;16.90;99351.00;;;;5076090;28;20270;-49
2024/01/02 01:16:11;;;;;;;2.53;1.83;;;16.10;68.40;16.90;99343.00;;;;5069919;28;20190;-49
2024/01/02 01:18:37;;;;;;;2.40;2.20;;;16.10;68.40;16.90;99323.00;;;;5050012;28;20208;-49
2024/01/02 01:21:03;;;;;;;2.33;2.10;;;16.00;68.20;16.90;99321.00;;;;5070722;28;20545;-48
2024/01/02 01:23:29;;;;;;;2.67;1.80;;;16.00;68.50;16.90;99313.00;;;;5072577;28;20266;-49
2024/01/02 01:25:54;;;;;;;2.10;1.80;;;16.00;68.50;16.90;99295.00;;;;5073407;28;20181;-49
2024/01/02 01:28:20;;;;;;;2.10;1.90;;;16.00;68.40;16.90;99285.00;;;;5071026;28;20182;-49
2024/01/02 01:30:46;;;;;;;3.00;2.00;;;16.00;69.40;16.90;99275.00;;;;5070112;28;20543;-50
2024/01/02 01:33:11;;;;;;;2.50;1.90;;;16.00;68.60;16.90;99279.00;;;;5077131;28;20307;-49
2024/01/02 01:35:37;;;;;;;2.40;1.80;;;16.00;68.70;16.90;99251.00;;;;5076548;28;20179;-49
2024/01/02 01:38:03;;;;;;;1.90;1.70;;;16.10;68.60;16.90;99238.00;;;;5069391;28;20401;-49
2024/01/02 01:40:29;;;;;;;2.30;2.10;;;16.10;68.50;17.00;99245.00;;;;5069193;28;20208;-48
2024/01/02 01:42:55;;;;;;;2.23;1.90;;;16.10;68.60;17.00;99236.00;;;;5069872;28;20208;-50
2024/01/02 01:45:21;;;;;;;2.07;1.80;;;16.10;68.60;17.00;99229.00;;;;5072607;28;20182;-48
2024/01/02 01:47:47;;;;;;;1.97;1.77;;;16.10;68.50;17.00;99222.00;;;;5069310;28;21337;-49
2024/01/02 01:50:12;;;;;;;2.47;1.90;;;16.20;68.50;17.00;99216.00;;;;5049088;28;20185;-49
2024/01/02 01:52:40;;;;;;;2.23;1.93;;;16.10;68.30;17.00;99215.00;;;;5049024;28;20224;-49
2024/01/02 01:55:06;;;;;;;2.57;2.13;;;16.10;68.20;17.00;99208.00;;;;5069263;28;20590;-48
2024/01/02 01:57:32;;;;;;;2.47;1.93;;;16.10;68.20;17.00;99198.00;;;;5075231;28;20194;-49
2024/01/02 01:59:58;;;;;;;1.83;1.60;;;16.10;68.10;17.00;99197.00;;;;5045698;28;20225;-49
2024/01/02 02:02:23;;;;;;;1.90;1.70;;;16.10;68.00;17.00;99188.00;;;;5053837;28;20243;-49
2024/01/02 02:04:49;;;;;;;2.03;1.70;;;16.10;68.00;17.00;99168.00;;;;5036193;28;20176;-49
2024/01/02 02:07:15;;;;;;;2.53;2.03;;;16.10;68.10;17.00;99163.00;;;;5068881;28;20187;-49
2024/01/02 02:09:41;;;;;;;2.10;1.90;;;16.10;68.00;17.00;99156.00;;;;5048648;28;20613;-49
2024/01/02 02:12:07;;;;;;;2.67;1.90;;;16.10;68.00;17.00;99146.00;;;;5073691;28;20205;-49
2024/01/02 02:14:32;;;;;;;2.37;1.90;;;16.10;68.00;17.00;99145.00;;;;5070586;28;20199;-50
2024/01/02 02:16:58;;;;;;;2.80;1.90;;;16.10;68.00;17.00;99143.00;;;;5045699;28;20188;-49
2024/01/02 02:19:24;;;;;;;2.20;1.80;;;16.10;68.00;17.00;99133.00;;;;5065347;28;20231;-51
2024/01/02 02:21:51;;;;;;;2.00;1.80;;;16.10;68.00;17.00;99144.00;;;;5056010;28;20196;-50
2024/01/02 02:24:18;;;;;;;2.10;1.90;;;16.10;68.00;17.00;99133.00;;;;5049132;28;20183;-49
2024/01/02 02:26:43;;;;;;;2.43;1.80;;;16.10;67.90;17.00;99130.00;;;;5048965;28;20243;-50
2024/01/02 02:29:09;;;;;;;2.20;1.90;;;16.10;67.90;17.00;99121.00;;;;5068370;28;20192;-49
2024/01/02 02:31:35;;;;;;;1.90;1.80;;;16.00;67.80;17.00;99112.00;;;;5067565;28;20635;-49
2024/01/02 02:34:01;;;;;;;2.47;1.83;;;16.00;67.80;17.00;99092.00;;;;5068716;28;20356;-49
2024/01/02 02:36:26;;;;;;;2.33;1.80;;;16.00;68.00;17.00;99090.00;;;;5068484;28;20180;-49
2024/01/02 02:38:52;;;;;;;2.00;1.80;;;16.00;67.80;17.00;99048.00;;;;5068140;28;20252;-49
2024/01/02 02:41:18;;;;;;;1.80;1.70;;;16.00;67.80;17.00;99057.00;;;;5067783;28;20184;-50
2024/01/02 02:43:44;;;;;;;2.03;1.80;;;16.00;67.90;17.00;99058.00;;;;5067273;28;20235;-49
2024/01/02 02:46:09;;;;;;;2.17;1.90;;;16.00;67.80;17.00;99049.00;;;;5068106;28;20630;-49
2024/01/02 02:48:35;;;;;;;2.80;2.03;;;16.00;67.80;16.90;99031.00;;;;5068875;28;20204;-49
2024/01/02 02:51:01;;;;;;;1.50;1.40;;;16.00;67.80;17.00;99021.00;;;;5072919;28;20189;-49
2024/01/02 02:53:27;;;;;;;1.70;1.60;;;16.00;67.80;16.90;98982.00;;;;5067961;28;20208;-49
2024/01/02 02:55:52;;;;;;;2.50;1.90;;;16.00;67.80;16.90;99003.00;;;;5067683;28;20174;-48
2024/01/02 02:58:19;;;;;;;2.67;1.97;;;16.00;67.80;16.90;99001.00;;;;5068094;28;20192;-48
2024/01/02 03:00:44;;;;;;;2.00;1.80;;;15.90;67.70;16.90;98964.00;;;;5066635;28;20608;-49
2024/01/02 03:03:10;;;;;;;2.00;1.80;;;15.90;67.70;16.90;98978.00;;;;5067967;28;20256;-49
2024/01/02 03:05:36;;;;;;;1.77;1.53;;;15.90;67.70;16.90;98980.00;;;;5068053;28;20176;-49
2024/01/02 03:08:02;;;;;;;1.97;1.77;;;15.90;67.70;16.90;98976.00;;;;5067816;28;20560;-50
2024/01/02 03:10:27;;;;;;;1.90;1.60;;;15.90;67.70;16.90;98970.00;;;;5035342;28;20669;-49
2024/01/02 03:12:53;;;;;;;1.90;1.80;;;15.90;67.70;16.90;98951.00;;;;5063462;28;20261;-49
2024/01/02 03:15:19;;;;;;;1.60;1.50;;;15.90;67.70;16.90;98928.00;;;;5065882;28;20274;-51
2024/01/02 03:17:45;;;;;;;1.73;1.63;;;15.90;67.70;16.90;98940.00;;;;5066857;28;20297;-53
2024/01/02 03:20:11;;;;;;;1.80;1.70;;;15.90;67.70;16.90;98911.00;;;;5070243;28;20217;-49
2024/01/02 03:22:37;;;;;;;2.07;1.87;;;15.80;67.60;16.90;98917.00;;;;5051178;28;20260;-49
2024/01/02 03:25:03;;;;;;;1.70;1.60;;;15.90;67.70;16.90;98920.00;;;;5068114;28;20182;-49
2024/01/02 03:27:29;;;;;;;2.33;1.70;;;15.90;67.70;16.80;98889.00;;;;5068238;28;20179;-48
2024/01/02 03:29:55;;;;;;;1.70;1.60;;;15.90;67.70;16.80;98874.00;;;;5066765;28;20196;-48
2024/01/02 03:32:21;;;;;;;1.60;1.50;;;15.80;67.60;16.80;98863.00;;;;5068165;28;20195;-49
2024/01/02 03:34:50;;;;;;;1.70;1.60;;;15.80;67.60;16.80;98859.00;;;;5070190;28;20186;-50
2024/01/02 03:37:16;;;;;;;1.50;1.40;;;15.80;67.60;16.80;98857.00;;;;5067754;28;20195;-49
2024/01/02 03:39:42;;;;;;;1.50;1.40;;;15.80;67.60;16.80;98847.00;;;;5047077;28;20228;-49
2024/01/02 03:42:08;;;;;;;1.63;1.40;;;15.80;67.60;16.80;98842.00;;;;5068015;28;20210;-49
2024/01/02 03:44:33;;;;;;;2.23;1.90;;;15.80;67.80;16.80;98832.00;;;;5067781;28;20182;-49
2024/01/02 03:46:59;;;;;;;1.70;1.57;;;15.80;67.90;16.70;98825.00;;;;5067536;28;20189;-49
2024/01/02 03:49:25;;;;;;;1.70;1.60;;;15.70;67.80;16.70;98813.00;;;;5067404;28;20183;-49
2024/01/02 03:51:51;;;;;;;1.40;1.30;;;15.70;67.70;16.70;98806.00;;;;5067553;28;20211;-49
2024/01/02 03:54:17;;;;;;;1.50;1.40;;;15.70;67.90;16.70;98778.00;;;;5067526;28;20207;-49
2024/01/02 03:56:43;;;;;;;1.47;1.37;;;15.70;67.80;16.70;98768.00;;;;5067353;28;20602;-49
2024/01/02 03:59:09;;;;;;;1.47;1.37;;;15.70;67.80;16.60;98773.00;;;;5067166;28;20223;-49
2024/01/02 04:01:43;;;;;;;1.70;1.60;;;15.70;67.80;16.60;98755.00;;;;5066428;28;20197;-49
2024/01/02 04:04:08;;;;;;;1.60;1.50;;;15.70;67.90;16.60;98762.00;;;;5048342;28;20188;-49
2024/01/02 04:06:34;;;;;;;1.70;1.60;;;15.70;67.80;16.60;98752.00;;;;5067964;28;20174;-49
2024/01/02 04:09:00;;;;;;;1.50;1.40;;;15.70;67.80;16.60;98752.00;;;;5068129;28;20772;-49
2024/01/02 04:11:25;;;;;;;1.77;1.50;;;15.70;67.80;16.50;98745.00;;;;5068293;28;20202;-48
2024/01/02 04:13:51;;;;;;;1.80;1.60;;;15.70;67.80;16.50;98744.00;;;;5068563;28;20190;-48
2024/01/02 04:16:17;;;;;;;1.70;1.60;;;15.60;67.60;16.50;98731.00;;;;5068319;28;20767;-49
2024/01/02 04:18:44;;;;;;;1.50;1.40;;;15.60;67.70;16.50;98716.00;;;;5066852;28;20202;-49
2024/01/02 04:21:10;;;;;;;1.73;1.50;;;15.60;67.70;16.50;98713.00;;;;5067707;28;20178;-49
2024/01/02 04:23:36;;;;;;;1.60;1.50;;;15.60;67.70;16.50;98697.00;;;;5067480;28;20642;-48
2024/01/02 04:26:01;;;;;;;1.53;1.43;;;15.60;67.70;16.40;98691.00;;;;5048872;28;20185;-49
2024/01/02 04:28:27;;;;;;;1.60;1.50;;;15.60;67.80;16.50;98674.00;;;;5053289;28;20182;-50
2024/01/02 04:30:53;;;;;;;1.40;1.30;;;15.50;67.70;16.40;98678.00;;;;5072249;28;20181;-49
2024/01/02 04:33:19;;;;;;;2.90;1.43;;;15.50;67.70;16.50;98674.00;;;;5071638;28;20199;-49
2024/01/02 04:35:45;;;;;;;1.23;1.13;;;15.60;67.90;16.50;98664.00;;;;5071283;28;20175;-49
2024/01/02 04:38:10;;;;;;;3.13;1.33;;;15.60;68.00;16.50;98654.00;;;;5071471;28;20243;-48
2024/01/02 04:40:36;;;;;;;1.70;1.60;;;15.60;67.90;16.50;98670.00;;;;5070959;28;20633;-48
2024/01/02 04:43:02;;;;;;;2.30;1.50;;;15.50;67.80;16.50;98666.00;;;;5077399;28;20205;-48
2024/01/02 04:45:28;;;;;;;2.53;1.27;;;15.60;67.80;16.50;98660.00;;;;5071237;28;20214;-49
2024/01/02 04:47:53;;;;;;;1.73;1.00;;;15.50;67.60;16.50;98672.00;;;;5071393;28;20206;-48
2024/01/02 04:50:19;;;;;;;1.50;1.13;;;15.60;67.70;16.50;98665.00;;;;5070930;28;20190;-48
2024/01/02 04:52:45;;;;;;;1.50;1.40;;;15.50;67.60;16.50;98654.00;;;;5070870;28;20210;-48
2024/01/02 04:55:11;;;;;;;1.50;1.40;;;15.50;67.60;16.50;98656.00;;;;5071092;28;20185;-49
2024/01/02 04:57:36;;;;;;;1.50;1.13;;;15.50;67.60;16.50;98657.00;;;;5071175;28;20205;-49
2024/01/02 05:00:02;;;;;;;1.30;1.20;;;15.50;67.60;16.50;98652.00;;;;5069688;28;20706;-48
2024/01/02 05:02:28;;;;;;;1.60;1.37;;;15.50;67.70;16.40;98647.00;;;;5071129;28;20199;-49
2024/01/02 05:04:54;;;;;;;1.40;1.30;;;15.40;67.50;16.40;98644.00;;;;5070827;28;20197;-49
2024/01/02 05:07:19;;;;;;;1.37;1.27;;;15.40;67.40;16.40;98641.00;;;;5071259;28;20180;-48
2024/01/02 05:09:45;;;;;;;0.80;0.80;;;15.40;67.50;16.40;98639.00;;;;5070642;28;20600;-48
2024/01/02 05:12:13;;;;;;;1.27;1.07;;;15.40;67.40;16.40;98647.00;;;;5073668;28;20213;-49
2024/01/02 05:14:39;;;;;;;1.00;1.00;;;15.40;67.50;16.40;98624.00;;;;5071626;28;20231;-49
2024/01/02 05:17:07;;;;;;;1.20;1.10;;;15.40;67.50;16.40;98612.00;;;;5066410;28;20645;-49
2024/01/02 05:19:33;;;;;;;1.47;1.00;;;15.40;67.50;16.40;98627.00;;;;5068856;28;20205;-48
2024/01/02 05:21:59;;;;;;;1.53;1.43;;;15.40;67.60;16.40;98633.00;;;;5070751;28;20201;-48
2024/01/02 05:24:24;;;;;;;1.80;0.90;;;15.40;67.60;16.40;98636.00;;;;5073794;28;20174;-49
2024/01/02 05:26:51;;;;;;;1.10;1.03;;;15.40;67.60;16.40;98634.00;;;;5072645;28;20173;-48
2024/01/02 05:29:17;;;;;;;1.30;1.03;;;15.40;67.70;16.40;98626.00;;;;5070356;28;20197;-48
2024/01/02 05:31:43;;;;;;;0.97;0.97;;;15.40;67.60;16.40;98629.00;;;;5067262;28;20244;-48
2024/01/02 05:34:08;;;;;;;2.23;1.10;;;15.40;67.80;16.40;98617.00;;;;5067835;28;20186;-49
2024/01/02 05:36:34;;;;;;;1.30;1.20;;;15.40;67.80;16.40;98622.00;;;;5068267;28;20189;-49
2024/01/02 05:39:00;;;;;;;1.37;1.17;;;15.40;67.90;16.40;98615.00;;;;5068773;28;20199;-48
2024/01/02 05:41:26;;;;;;;1.93;1.13;;;15.40;67.90;16.40;98613.00;;;;5069851;28;20198;-49
2024/01/02 05:43:51;;;;;;;1.57;1.30;;;15.40;68.00;16.40;98618.00;;;;5069193;28;20181;-49
2024/01/02 05:46:17;;;;;;;1.30;1.03;;;15.40;68.00;16.40;98618.00;;;;5068101;28;20220;-49
2024/01/02 05:48:43;;;;;;;1.50;1.20;;;15.40;68.10;16.40;98606.00;;;;5067306;28;20185;-49
2024/01/02 05:51:09;;;;;;;1.30;1.03;;;15.40;68.00;16.40;98612.00;;;;5069455;28;20174;-49
2024/01/02 05:53:34;;;;;;;3.00;1.30;;;15.40;68.10;16.30;98629.00;;;;5069832;28;20185;-48
2024/01/02 05:56:00;;;;;;;1.77;1.30;;;15.40;68.10;16.30;98626.00;;;;5049362;28;20235;-49
2024/01/02 05:58:26;;;;;;;1.23;1.03;;;15.40;68.10;16.30;98624.00;;;;5066324;28;20201;-49
2024/01/02 06:00:51;;;;;;;1.70;1.27;;;15.40;68.10;16.30;98621.00;;;;5067717;28;20186;-49
2024/01/02 06:03:17;;;;;;;1.90;0.87;;;15.30;68.10;16.30;98625.00;;;;5068372;28;20193;-48
2024/01/02 06:05:44;;;;;;;2.73;1.33;;;15.30;68.10;16.30;98604.00;;;;5068525;28;20683;-48
2024/01/02 06:08:09;;;;;;;0.77;0.77;;;15.30;68.10;16.30;98620.00;;;;5067593;28;20754;-49
2024/01/02 06:10:36;;;;;;;2.10;0.90;;;15.30;68.30;16.30;98621.00;;;;5068986;28;20198;-49
2024/01/02 06:13:02;;;;;;;1.17;1.07;;;15.40;68.30;16.30;98617.00;;;;5069266;28;20255;-49
2024/01/02 06:15:28;;;;;;;1.17;0.90;;;15.40;68.20;16.30;98600.00;;;;5069362;28;20178;-48
2024/01/02 06:17:53;;;;;;;3.47;1.43;;;15.40;68.10;16.30;98608.00;;;;5068579;28;20166;-48
2024/01/02 06:20:20;;;;;;;2.33;1.20;;;15.30;68.10;16.30;98619.00;;;;5067420;28;20205;-49
2024/01/02 06:22:46;;;;;;;1.50;1.00;;;15.40;68.20;16.30;98616.00;;;;5067471;28;20205;-49
2024/01/02 06:25:12;;;;;;;2.20;1.23;;;15.40;68.20;16.30;98622.00;;;;5074963;28;20168;-48
2024/01/02 06:27:38;;;;;;;1.50;0.97;;;15.40;68.20;16.30;98619.00;;;;5068423;28;20559;-48
2024/01/02 06:30:05;;;;;;;1.60;1.20;;;15.30;68.10;16.30;98602.00;;;;5067414;28;20180;-49
2024/01/02 06:32:31;;;;;;;2.70;1.17;;;15.30;68.20;16.30;98612.00;;;;5047386;28;20314;-49
2024/01/02 06:34:57;;;;;;;1.17;1.03;;;15.30;68.30;16.30;98621.00;;;;5074849;28;20186;-48
2024/01/02 06:37:23;;;;;;;1.93;1.00;;;15.30;68.20;16.30;98604.00;;;;5066998;28;20181;-48
2024/01/02 06:39:49;;;;;;;1.20;1.00;;;15.30;68.30;16.30;98609.00;;;;5069065;28;20705;-50
2024/01/02 06:42:15;;;;;;;1.57;1.13;;;15.30;68.40;16.30;98615.00;;;;5070627;28;20252;-48
2024/01/02 06:44:41;;;;;;;1.43;1.33;;;15.30;68.40;16.30;98617.00;;;;5067472;28;20182;-48
2024/01/02 06:47:06;;;;;;;1.63;1.17;;;15.30;68.40;16.20;98619.00;;;;5066809;28;20661;-48
2024/01/02 06:49:32;;;;;;;1.20;1.10;;;15.30;68.40;16.30;98644.00;;;;5067859;28;20177;-48
2024/01/02 06:51:58;;;;;;;2.30;1.40;;;15.30;68.40;16.20;98647.00;;;;5075866;28;20280;-48
2024/01/02 06:54:24;;;;;;;2.57;1.00;;;15.30;68.40;16.30;98631.00;;;;5068839;28;20182;-49
2024/01/02 06:56:50;;;;;;;1.37;0.93;;;15.20;68.40;16.20;98640.00;;;;5066941;28;20175;-49
2024/01/02 06:59:15;;;;;;;2.20;1.20;;;15.30;68.50;16.20;98656.00;;;;5068720;28;20260;-49
2024/01/02 07:01:41;;;;;;;1.10;1.00;;;15.30;68.60;16.20;98657.00;;;;5071019;28;20220;-49
2024/01/02 07:04:07;;;;;;;1.33;1.00;;;15.20;68.50;16.20;98634.00;;;;5059365;28;20283;-48
2024/01/02 07:06:33;;;;;;;1.27;1.03;;;15.20;68.50;16.20;98656.00;;;;5063492;28;20170;-48
2024/01/02 07:08:58;;;;;;;0.83;0.80;;;15.20;68.50;16.20;98643.00;;;;5068245;28;20185;-48
2024/01/02 07:11:24;;;;;;;1.27;1.00;;;15.20;68.60;16.20;98645.00;;;;5068274;28;20201;-48
2024/01/02 07:13:50;;;;;;;2.20;1.00;;;15.20;68.60;16.20;98644.00;;;;5067978;28;20174;-49
2024/01/02 07:16:15;;;;;;;0.83;0.83;;;15.20;68.50;16.20;98649.00;;;;5071167;28;20175;-48
2024/01/02 07:18:41;;;;;;;1.37;0.73;;;15.20;68.70;16.20;98643.00;;;;5068869;28;20186;-48
2024/01/02 07:21:08;;;;;;;0.90;0.90;;;15.20;68.60;16.20;98637.00;;;;5067970;28;20637;-48
2024/01/02 07:23:34;;;;;;;1.10;1.00;;;15.20;68.70;16.20;98645.00;;;;5068025;28;20173;-48
2024/01/02 07:26:00;;;;;;;1.20;1.10;;;15.20;68.70;16.20;98639.00;;;;5070003;28;20261;-48
2024/01/02 07:28:25;;;;;;;1.03;0.90;;;15.20;68.80;16.20;98637.00;;;;5067908;28;20560;-48
2024/01/02 07:30:51;;;;;;;0.90;0.90;;;15.20;68.80;16.20;98639.00;;;;5066661;28;20174;-48
2024/01/02 07:33:17;;;;;;;0.80;0.80;;;15.20;68.80;16.20;98642.00;;;;5068230;28;20217;-48
2024/01/02 07:35:43;;;;;;;1.17;0.77;;;15.20;68.80;16.20;98651.00;;;;5068470;28;20204;-48
2024/01/02 07:38:08;;;;;;;0.87;0.70;;;15.20;68.80;16.20;98649.00;;;;5066835;28;20680;-48
2024/01/02 07:40:34;;;;;;;0.70;0.70;;;15.20;68.80;16.20;98649.00;;;;5067978;28;20198;-49
2024/01/02 07:43:00;;;;;;;0.80;0.80;;;15.20;68.90;16.20;98653.00;;;;5068269;28;20190;-48
2024/01/02 07:45:27;;;;;;;0.50;0.50;;;15.20;68.90;16.20;98647.00;;;;5067305;28;20178;-48
2024/01/02 07:47:52;;;;;;;1.43;1.00;;;15.20;68.90;16.10;98636.00;;;;5064560;28;20169;-49
2024/01/02 07:50:18;;;;;;;0.70;0.63;;;15.10;68.90;16.20;98663.00;;;;5067778;28;20173;-49
2024/01/02 07:52:44;;;;;;;0.80;0.80;;;15.10;68.90;16.10;98672.00;;;;5067845;28;20758;-48
2024/01/02 07:55:11;;;;;;;0.97;0.90;;;15.10;68.90;16.10;98675.00;;;;5068221;28;20173;-48
2024/01/02 07:57:37;;;;;;;0.80;0.80;;;15.10;68.80;16.10;98663.00;;;;5066103;28;20274;-48
2024/01/02 08:00:03;;;;;;;0.70;0.70;;;15.10;68.90;16.10;98660.00;;;;5066051;28;20284;-48
2024/01/02 08:02:29;;;;;;;0.50;0.50;;;15.10;68.90;16.10;98656.00;;;;5071260;28;20278;-49
2024/01/02 08:04:55;;;;;;;0.83;0.83;;;15.10;68.90;16.10;98660.00;;;;5071910;28;20253;-49
2024/01/02 08:07:21;;;;;;;1.27;0.97;;;15.10;68.90;16.10;98675.00;;;;5069781;28;20262;-47
2024/01/02 08:09:46;;;;;;;0.43;0.43;;;15.10;69.00;16.10;98684.00;;;;5071499;28;20829;-49
2024/01/02 08:12:12;;;;;;;0.70;0.70;;;15.10;69.00;16.10;98688.00;;;;5071618;28;20200;-49
2024/01/02 08:14:38;;;;;;;0.80;0.80;;;15.10;69.00;16.10;98704.00;;;;5071390;28;20265;-48
2024/01/02 08:17:04;;;;;;;0.83;0.80;;;15.10;69.10;16.10;98700.00;;;;5071116;28;20199;-48
2024/01/02 08:19:30;;;;;;;0.63;0.63;;;15.10;69.10;16.10;98702.00;;;;5071285;28;20202;-49
2024/01/02 08:21:56;;;;;;;0.67;0.63;;;15.10;69.10;16.10;98695.00;;;;5036354;28;20194;-48
2024/01/02 08:24:22;;;;;;;0.70;0.63;;;15.10;69.10;16.10;98702.00;;;;5068223;28;20177;-48
2024/01/02 08:26:47;;;;;;;0.83;0.63;;;15.10;69.10;16.10;98693.00;;;;5069665;28;20598;-50
2024/01/02 08:29:13;;;;;;;0.70;0.70;;;15.10;69.20;16.10;98695.00;;;;5070988;28;20207;-49
2024/01/02 08:31:39;;;;;;;2.27;0.70;;;15.10;69.20;16.10;98688.00;;;;5069724;28;20243;-48
2024/01/02 08:34:05;;;;;;;0.70;0.70;;;15.10;69.10;16.10;98695.00;;;;5071550;28;20206;-48
2024/01/02 08:36:31;;;;;;;0.90;0.90;;;15.10;69.50;16.10;98691.00;;;;5069680;28;20695;-48
2024/01/02 08:38:57;;;;;;;0.60;0.60;;;15.10;69.50;16.10;98706.00;;;;5064344;28;20560;-47
2024/01/02 08:41:23;;;;;;;2.27;0.80;;;15.10;69.50;16.10;98696.00;;;;5071203;28;20219;-49
2024/01/02 08:43:48;;;;;;;1.00;0.73;;;15.10;69.50;16.10;98697.00;;;;5058961;28;20170;-48
2024/01/02 08:46:14;;;;;;;0.70;0.70;;;15.10;69.60;16.10;98705.00;;;;5067927;28;20182;-48
2024/01/02 08:48:40;;;;;;;1.83;0.90;;;15.00;69.50;16.10;98705.00;;;;5075697;28;20169;-48
2024/01/02 08:51:06;;;;;;;0.87;0.87;;;15.00;69.60;16.10;98709.00;;;;5069780;28;20178;-48
2024/01/02 08:53:32;;;;;;;0.60;0.60;;;15.00;69.80;16.10;98712.00;;;;5075985;28;20189;-53
2024/01/02 08:55:58;;;;;;;0.60;0.60;;;15.00;69.70;16.10;98713.00;;;;5080605;28;20179;-57
2024/01/02 08:58:24;;;;;;;1.90;0.80;;;15.10;69.90;16.10;98716.00;;;;5080716;28;20177;-48
2024/01/02 09:00:50;;;;;;;1.67;0.90;;;15.00;69.70;16.10;98707.00;;;;5073726;28;20688;-49
2024/01/02 09:03:16;;;;;;;1.80;1.10;;;15.00;69.80;16.10;98709.00;;;;5076106;28;20231;-48
2024/01/02 09:05:42;;;;;;;1.87;0.97;;;15.00;69.90;16.10;98716.00;;;;5070119;28;20197;-48
2024/01/02 09:08:08;;;;;;;0.90;0.90;;;15.00;69.80;16.10;98726.00;;;;5078017;28;20828;-48
2024/01/02 09:10:33;;;;;;;1.10;1.00;;;15.00;69.90;16.10;98726.00;;;;5069780;28;20177;-48
2024/01/02 09:12:59;;;;;;;2.03;1.20;;;15.00;69.90;16.10;98722.00;;;;5069928;28;20193;-48
2024/01/02 09:15:25;;;;;;;2.30;1.37;;;15.00;69.90;16.00;98730.00;;;;5070401;28;20682;-49
2024/01/02 09:17:51;;;;;;;1.43;0.80;;;15.00;69.90;16.00;98718.00;;;;5069779;28;20240;-49
2024/01/02 09:20:16;;;;;;;1.97;1.20;;;15.00;69.90;16.00;98721.00;;;;5069994;28;20209;-48
2024/01/02 09:22:42;;;;;;;1.23;1.10;;;15.00;69.90;16.10;98722.00;;;;5069536;28;20275;-48
2024/01/02 09:25:10;;;;;;;1.83;1.10;;;15.00;69.90;16.10;98719.00;;;;5069736;28;20180;-48
2024/01/02 09:27:36;;;;;;;1.30;1.13;;;15.00;69.90;16.00;98719.00;;;;5043599;28;20178;-48
2024/01/02 09:30:04;;;;;;;3.30;1.20;;;15.00;70.00;16.00;98718.00;;;;5050466;28;20177;-48
2024/01/02 09:32:30;;;;;;;1.10;1.00;;;15.00;69.90;16.00;98723.00;;;;5049268;28;20246;-48
2024/01/02 09:34:56;;;;;;;0.80;0.80;;;15.00;70.00;16.00;98723.00;;;;5041398;28;20184;-48
2024/01/02 09:37:21;;;;;;;1.60;0.90;;;15.00;69.90;16.00;98721.00;;;;5052192;28;20185;-48
2024/01/02 09:39:47;;;;;;;0.90;0.90;;;15.00;69.90;16.00;98713.00;;;;5048114;28;20201;-47
2024/01/02 09:42:38;;;;;;;0.97;0.97;;;15.00;69.90;16.00;98713.00;;;;5069878;28;20861;-54
2024/01/02 09:45:09;;;;;;;1.10;1.00;;;15.00;69.90;16.00;98702.00;;;;5051640;28;20180;-47
2024/01/02 09:47:53;;;;;;;0.90;0.77;;;15.00;69.90;16.00;98691.00;;;;5067633;28;20219;-49
2024/01/02 09:50:39;;;;;;;2.63;0.93;;;15.00;70.00;16.00;98701.00;;;;5048954;28;20178;-49
2024/01/02 09:53:29;;;;;;;2.53;0.93;;;14.90;70.30;16.00;98697.00;;;;5028470;28;20580;-47
2024/01/02 09:56:11;;;;;;;2.17;1.20;;;15.00;70.30;16.00;98691.00;;;;5067913;28;20844;-48
2024/01/02 09:58:53;;;;;;;1.83;1.07;;;15.00;70.70;16.00;98688.00;;;;5047999;28;20176;-49
2024/01/02 10:01:29;;;;;;;0.90;0.90;;;15.10;70.80;16.00;98676.00;;;;5036114;28;20177;-47
2024/01/02 10:04:22;;;;;;;2.53;1.20;;;15.10;71.00;16.00;98680.00;;;;5068720;28;20205;-49
2024/01/02 10:07:11;;;;;;;1.10;0.97;;;15.20;70.90;16.10;98685.00;;;;5055295;28;20206;-49
2024/01/02 10:09:58;;;;;;;3.33;1.17;;;15.30;70.90;16.10;98679.00;;;;5048064;28;20573;-49
2024/01/02 10:13:03;;;;;;;2.00;1.30;;;15.40;70.90;16.20;98667.00;;;;5049040;28;20259;-49
2024/01/02 10:15:56;;;;;;;8.47;1.13;;;15.60;70.70;16.30;98662.00;;;;5065040;28;20185;-48
2024/01/02 10:19:01;;;;;;;4.37;1.17;;;15.70;70.60;16.40;98663.00;;;;5062799;28;20183;-48
2024/01/02 10:21:45;;;;;;;4.27;1.30;;;15.80;70.50;16.50;98666.00;;;;5062237;28;20207;-49
2024/01/02 10:24:44;;;;;;;1.13;0.90;;;16.00;70.50;16.60;98669.00;;;;5045604;28;20788;-49
2024/01/02 10:27:14;;;;;;;2.23;1.00;;;16.20;71.50;16.80;98657.00;;;;5061397;28;20561;-49
2024/01/02 10:30:07;;;;;;;2.63;1.30;;;16.40;71.90;16.90;98647.00;;;;5047015;28;20549;-49
2024/01/02 10:32:57;;;;;;;3.83;1.10;;;16.50;71.90;17.00;98638.00;;;;5067585;28;20196;-49
2024/01/02 10:35:37;;;;;;;3.00;1.00;;;16.70;71.70;17.20;98641.00;;;;5047148;28;20248;-49
2024/01/02 10:38:12;;;;;;;4.57;1.00;;;16.80;71.60;17.30;98641.00;;;;5062043;28;20169;-49
2024/01/02 10:40:42;;;;;;;3.27;1.27;;;17.00;71.50;17.40;98635.00;;;;5045296;28;20227;-49
2024/01/02 10:43:30;;;;;;;4.00;1.37;;;17.00;71.50;17.50;98636.00;;;;5047104;28;20201;-49
2024/01/02 10:46:18;;;;;;;3.60;1.53;;;17.10;71.10;17.60;98630.00;;;;5061241;28;20195;-49
2024/01/02 10:48:55;;;;;;;2.23;1.23;;;17.30;71.10;17.70;98650.00;;;;5035926;28;20218;-49
2024/01/02 10:51:38;;;;;;;1.40;1.30;;;17.40;70.80;17.80;98654.00;;;;5055255;28;20552;-49
2024/01/02 10:54:05;;;;;;;2.70;1.63;;;17.40;70.70;17.90;98645.00;;;;5064094;28;20227;-49
2024/01/02 10:56:57;;;;;;;3.30;1.47;;;17.50;70.80;18.00;98631.00;;;;5066721;28;20258;-49